Akk, Virginia
Current Conditions -  °F | °C
As of 12:35 AM on Sunday 23 Nov 2014 (Local Time) from KFYJ Reporting Station
Clear Clear  
Wind Chill: 32°   Ceiling: Unl
Heat Index: 32°   Visibility: 10mi
Dew Point: 22°   Wind: 0mph
Humidity: 68%   Direction: NA
Pressure: 30.34"   Gusts: NA
Location:  37.4383°N, 76.5764°W
Report Text: KFYJ 230535Z AUTO 00000KT 10SM CLR 00/M05 A3034 RMK AO2 T10011054
Loading
Personal Weather Stations






























Interactive Weather Map New forecast layout! Learn more

10-Day Weather Forecast

Advertisements
Track Severe Weather on mobile